Spirit Of Oceanus — C6PJ8 — position and weather

sailwx.info

Track history (hours):
 
Tides and Currents Weather Stations Pressure Air Temp Water Temp Dewpoint Dewpoint Depression Visibility Wind Speed Wind Dir Waves Ship Positions

Spirit Of Oceanus

Last reported at 2016-Dec-06 01:29 UTC. Time now 2016-Dec-07 16:20 UTC.
Position S 55°02' W 066°44'.

Type: Passenger vessel. MMSI: 309224000.

Date/timePositionNaut miles runAvg speedWind from/ knotsBaromVisibWave heightAir tempDewpointWater temp
2016-Dec-06 01:29S 55°02' W 066°44'2513.1
2016-Dec-05 23:33S 54°55' W 067°25'1413.7
2016-Dec-05 22:33S 54°53' W 067°49'1414.3
2016-Dec-05 21:33S 54°50' W 068°13'3 2.8
2016-Dec-05 20:31S 54°49' W 068°18'0 0.0
2016-Dec-05 19:31S 54°49' W 068°18'0 0.0
2016-Dec-05 18:31S 54°49' W 068°18'0 0.0
2016-Dec-05 17:31S 54°49' W 068°18'0 0.0
2016-Dec-05 16:31S 54°49' W 068°18'0 0.0
2016-Dec-05 15:31S 54°49' W 068°18'0 0.0
2016-Dec-05 14:31S 54°49' W 068°18'0 0.0
2016-Dec-05 13:31S 54°49' W 068°18'0 0.0
2016-Dec-05 12:34S 54°49' W 068°18'0 0.0
2016-Dec-05 11:34S 54°49' W 068°18'0 0.0
2016-Dec-05 10:34S 54°49' W 068°18'2 1.5
2016-Dec-05 09:33S 54°49' W 068°15'8 7.6
2016-Dec-05 08:34S 54°52' W 068°03'9 8.8
2016-Dec-05 07:33S 54°54' W 067°48'1212.0
2016-Dec-05 06:33S 54°55' W 067°28'  
Track history (hours):
 
Tides and Currents Weather Stations Pressure Air Temp Water Temp Dewpoint Dewpoint Depression Visibility Wind Speed Wind Dir Waves Ship Positions

Spirit Of Oceanus

Last reported at 2016-Dec-06 01:29 UTC. Time now 2016-Dec-07 16:20 UTC.
Position S 55°02' W 066°44'.

Type: Passenger vessel. MMSI: 309224000.

Date/timePositionNaut miles runAvg speedWind from/ knotsBaromVisibWave heightAir tempDewpointWater temp
2016-Dec-06 01:29S 55°02' W 066°44'2513.1
2016-Dec-05 23:33S 54°55' W 067°25'1413.7
2016-Dec-05 22:33S 54°53' W 067°49'1414.3
2016-Dec-05 21:33S 54°50' W 068°13'3 2.8
2016-Dec-05 20:31S 54°49' W 068°18'0 0.0
2016-Dec-05 19:31S 54°49' W 068°18'0 0.0
2016-Dec-05 18:31S 54°49' W 068°18'0 0.0
2016-Dec-05 17:31S 54°49' W 068°18'0 0.0
2016-Dec-05 16:31S 54°49' W 068°18'0 0.0
2016-Dec-05 15:31S 54°49' W 068°18'0 0.0
2016-Dec-05 14:31S 54°49' W 068°18'0 0.0
2016-Dec-05 13:31S 54°49' W 068°18'0 0.0
2016-Dec-05 12:34S 54°49' W 068°18'0 0.0
2016-Dec-05 11:34S 54°49' W 068°18'0 0.0
2016-Dec-05 10:34S 54°49' W 068°18'2 1.5
2016-Dec-05 09:33S 54°49' W 068°15'8 7.6
2016-Dec-05 08:34S 54°52' W 068°03'9 8.8
2016-Dec-05 07:33S 54°54' W 067°48'1212.0
2016-Dec-05 06:33S 54°55' W 067°28'  

Dump ship's entire track history